createdAt,value
2023-02-17T00:00:30.932Z,71.77
2023-02-17T00:03:02.167Z,72.05
2023-02-17T00:05:30.666Z,72.13
2023-02-17T00:07:59.506Z,72.15
2023-02-17T00:10:28.821Z,72.23
2023-02-17T00:12:56.976Z,72.32
2023-02-17T00:15:26.220Z,72.71
2023-02-17T00:17:54.368Z,72.85
2023-02-17T00:20:25.040Z,72.90
2023-02-17T00:22:53.641Z,73.18
2023-02-17T00:25:21.842Z,73.39
2023-02-17T00:27:50.265Z,73.47
2023-02-17T00:30:18.909Z,73.71
2023-02-17T00:32:48.326Z,73.38
2023-02-17T00:35:16.477Z,73.68
2023-02-17T00:37:45.710Z,73.64
2023-02-17T00:40:14.373Z,73.78
2023-02-17T00:42:45.270Z,73.84
2023-02-17T00:45:13.705Z,73.97
2023-02-17T00:47:41.914Z,73.86
2023-02-17T00:50:11.677Z,74.03
2023-02-17T00:52:39.975Z,74.21
2023-02-17T00:55:09.255Z,74.43
2023-02-17T00:57:37.789Z,74.48
2023-02-17T01:00:06.862Z,74.69
2023-02-17T01:02:35.875Z,74.70
2023-02-17T01:05:04.987Z,74.82
2023-02-17T01:07:33.452Z,75.01
2023-02-17T01:10:05.406Z,75.05
2023-02-17T01:12:35.091Z,75.13
2023-02-17T01:15:03.603Z,75.14
2023-02-17T01:17:33.171Z,75.14
2023-02-17T01:20:01.878Z,75.09
2023-02-17T01:22:34.800Z,75.47
2023-02-17T01:25:04.286Z,75.44
2023-02-17T01:27:32.730Z,75.41
2023-02-17T01:30:01.310Z,75.55
2023-02-17T01:32:29.660Z,75.37
2023-02-17T01:34:57.855Z,75.67
2023-02-17T01:37:26.019Z,75.47
2023-02-17T01:39:56.034Z,75.69
2023-02-17T01:42:25.168Z,75.69
2023-02-17T01:45:19.555Z,75.55
2023-02-17T01:47:51.112Z,75.73
2023-02-17T01:50:21.524Z,75.95
2023-02-17T01:52:50.032Z,75.86
2023-02-17T01:55:19.196Z,75.91
2023-02-17T01:57:47.454Z,75.98
2023-02-17T02:00:17.524Z,76.17
2023-02-17T02:02:47.274Z,76.06
2023-02-17T02:05:16.697Z,76.08
2023-02-17T02:07:46.520Z,76.14
2023-02-17T02:10:15.046Z,76.08
2023-02-17T02:12:44.289Z,76.10
2023-02-17T02:15:22.472Z,76.10
2023-02-17T02:18:09.111Z,76.23
2023-02-17T02:20:43.275Z,76.34
2023-02-17T02:23:30.356Z,76.32
2023-02-17T02:26:35.960Z,76.38
2023-02-17T02:29:38.928Z,76.43
2023-02-17T02:32:25.882Z,76.50
2023-02-17T02:35:15.024Z,76.30
2023-02-17T02:37:45.620Z,76.47
2023-02-17T02:40:15.933Z,76.42
2023-02-17T02:42:44.533Z,76.48
2023-02-17T02:45:12.894Z,76.48
2023-02-17T02:47:55.456Z,76.63
2023-02-17T02:50:48.155Z,76.88
2023-02-17T02:53:29.125Z,76.80
2023-02-17T02:56:16.413Z,76.72
2023-02-17T02:59:06.182Z,76.87
2023-02-17T03:01:43.655Z,76.92
2023-02-17T03:04:21.306Z,76.86
2023-02-17T03:06:55.478Z,76.97
2023-02-17T03:09:27.502Z,76.86
2023-02-17T03:11:56.537Z,76.98
2023-02-17T03:14:25.928Z,76.93
2023-02-17T03:16:54.138Z,77.00
2023-02-17T03:19:22.984Z,76.88
2023-02-17T03:22:19.829Z,76.79
2023-02-17T03:24:49.191Z,76.94
2023-02-17T03:27:17.612Z,76.89
2023-02-17T03:29:46.381Z,76.92
2023-02-17T03:32:14.998Z,76.97
2023-02-17T03:34:43.151Z,76.93
2023-02-17T03:37:11.284Z,77.01
2023-02-17T03:39:39.879Z,77.04
2023-02-17T03:42:08.049Z,76.96
2023-02-17T03:44:36.406Z,76.95
2023-02-17T03:47:09.276Z,76.88
2023-02-17T03:49:37.932Z,76.96
2023-02-17T03:52:06.067Z,77.07
2023-02-17T03:54:35.260Z,77.01
2023-02-17T03:57:03.637Z,77.10
2023-02-17T03:59:33.261Z,77.13
2023-02-17T04:02:01.774Z,77.10
2023-02-17T04:04:30.134Z,77.19
2023-02-17T04:06:58.783Z,77.03
2023-02-17T04:09:32.842Z,77.21
2023-02-17T04:12:01.024Z,77.24
2023-02-17T04:14:29.508Z,77.12
2023-02-17T04:16:59.816Z,77.14
2023-02-17T04:19:28.050Z,77.28
2023-02-17T04:21:58.158Z,77.36
2023-02-17T04:24:26.471Z,77.19
2023-02-17T04:26:56.321Z,77.23
2023-02-17T04:29:24.740Z,77.26
2023-02-17T04:31:53.090Z,77.07
2023-02-17T04:34:22.434Z,77.22
2023-02-17T04:36:50.990Z,77.24
2023-02-17T04:39:19.319Z,77.17
2023-02-17T04:41:47.518Z,77.27
2023-02-17T04:44:15.891Z,77.42
2023-02-17T04:46:44.230Z,77.36
2023-02-17T04:49:12.781Z,77.12
2023-02-17T04:51:41.184Z,77.48
2023-02-17T04:54:10.807Z,77.45
2023-02-17T04:56:38.994Z,77.34
2023-02-17T04:59:07.671Z,77.20
2023-02-17T05:01:35.997Z,77.26
2023-02-17T05:04:08.660Z,77.34
2023-02-17T05:06:37.639Z,77.24
2023-02-17T05:09:06.292Z,77.22
2023-02-17T05:11:35.025Z,77.29
2023-02-17T05:14:03.428Z,77.37
2023-02-17T05:16:32.483Z,77.33
2023-02-17T05:19:00.766Z,77.39
2023-02-17T05:21:30.074Z,77.47
2023-02-17T05:23:58.501Z,77.58
2023-02-17T05:26:27.014Z,77.42
2023-02-17T05:28:55.544Z,77.78
2023-02-17T05:31:24.479Z,77.50
2023-02-17T05:33:55.901Z,77.57
2023-02-17T05:36:24.120Z,77.62
2023-02-17T05:38:52.732Z,77.70
2023-02-17T05:41:20.956Z,77.73
2023-02-17T05:43:49.611Z,77.95
2023-02-17T05:46:19.494Z,77.89
2023-02-17T05:48:48.771Z,77.98
2023-02-17T05:51:21.755Z,77.92
2023-02-17T05:53:49.973Z,78.01
2023-02-17T05:56:18.216Z,78.09
2023-02-17T05:58:47.956Z,78.11
2023-02-17T06:01:16.214Z,78.21
2023-02-17T06:03:44.469Z,78.28
2023-02-17T06:06:12.874Z,78.24
2023-02-17T06:08:41.676Z,78.33
2023-02-17T06:11:11.813Z,78.24
2023-02-17T06:13:41.120Z,78.26
2023-02-17T06:16:14.400Z,78.47
2023-02-17T06:18:45.587Z,78.37
2023-02-17T06:21:13.885Z,78.40
2023-02-17T06:23:42.244Z,78.55
2023-02-17T06:26:10.498Z,78.64
2023-02-17T06:28:38.679Z,78.61
2023-02-17T06:31:07.343Z,78.71
2023-02-17T06:33:35.587Z,78.57
2023-02-17T06:36:04.920Z,78.71
2023-02-17T06:38:33.760Z,78.67
2023-02-17T06:41:01.968Z,78.59
2023-02-17T06:43:32.815Z,78.74
2023-02-17T06:46:01.063Z,78.80
2023-02-17T06:48:33.085Z,78.86
2023-02-17T06:51:01.333Z,78.75
2023-02-17T06:53:29.859Z,78.91
2023-02-17T06:55:58.371Z,79.05
2023-02-17T06:58:26.681Z,78.99
2023-02-17T07:00:55.644Z,78.88
2023-02-17T07:03:24.077Z,78.88
2023-02-17T07:05:56.463Z,78.85
2023-02-17T07:08:24.944Z,78.86
2023-02-17T07:10:53.403Z,78.97
2023-02-17T07:13:23.374Z,78.88
2023-02-17T07:15:51.590Z,78.77
2023-02-17T07:18:20.986Z,78.87
2023-02-17T07:20:49.402Z,78.96
2023-02-17T07:23:17.841Z,78.69
2023-02-17T07:25:46.584Z,78.85
2023-02-17T07:28:14.775Z,78.61
2023-02-17T07:30:43.976Z,78.62
2023-02-17T07:33:14.096Z,78.58
2023-02-17T07:35:46.019Z,78.48
2023-02-17T07:38:15.614Z,78.42
2023-02-17T07:40:43.857Z,78.49
2023-02-17T07:43:12.788Z,78.42
2023-02-17T07:45:41.033Z,78.50
2023-02-17T07:48:10.068Z,78.34
2023-02-17T07:51:04.429Z,78.35
2023-02-17T07:53:33.059Z,78.19
2023-02-17T07:56:09.113Z,78.28
2023-02-17T07:58:39.354Z,78.13
2023-02-17T08:01:14.501Z,78.25
2023-02-17T08:03:43.213Z,78.13
2023-02-17T08:06:14.075Z,78.14
2023-02-17T08:09:01.509Z,78.14
2023-02-17T08:11:50.052Z,78.07
2023-02-17T08:14:18.474Z,78.01
2023-02-17T08:16:50.941Z,77.89
2023-02-17T08:19:19.233Z,77.90
2023-02-17T08:21:47.485Z,77.76
2023-02-17T08:24:19.847Z,77.64
2023-02-17T08:26:51.676Z,77.54
2023-02-17T08:29:21.066Z,77.45
2023-02-17T08:31:52.143Z,77.28
2023-02-17T08:34:20.705Z,77.23
2023-02-17T08:36:48.961Z,77.18
2023-02-17T08:39:17.586Z,76.98
2023-02-17T08:41:46.872Z,77.00
2023-02-17T08:44:20.302Z,76.73
2023-02-17T08:46:48.876Z,76.77
2023-02-17T08:49:20.335Z,76.46
2023-02-17T08:51:48.550Z,76.36
2023-02-17T08:54:17.243Z,76.22
2023-02-17T08:56:46.329Z,76.08
2023-02-17T08:59:14.698Z,75.94
2023-02-17T09:01:43.995Z,75.76
2023-02-17T09:04:13.037Z,75.81
2023-02-17T09:06:52.041Z,75.68
2023-02-17T09:09:22.717Z,75.63
2023-02-17T09:11:51.029Z,75.52
2023-02-17T09:14:19.478Z,75.51
2023-02-17T09:16:47.646Z,75.46
2023-02-17T09:19:16.157Z,75.42
2023-02-17T09:21:45.718Z,75.17
2023-02-17T09:24:15.079Z,74.98
2023-02-17T09:26:43.884Z,74.97
2023-02-17T09:29:12.087Z,74.62
2023-02-17T09:31:42.740Z,74.48
2023-02-17T09:34:11.142Z,74.48
2023-02-17T09:36:40.507Z,74.40
2023-02-17T09:39:12.283Z,74.36
2023-02-17T09:41:47.966Z,74.15
2023-02-17T09:44:23.869Z,74.09
2023-02-17T09:47:08.294Z,74.00
2023-02-17T09:49:42.379Z,74.00
2023-02-17T09:52:20.583Z,74.01
2023-02-17T09:54:52.205Z,74.02
2023-02-17T09:57:21.549Z,73.79
2023-02-17T09:59:56.124Z,73.45
2023-02-17T10:02:35.429Z,73.37
2023-02-17T10:05:06.390Z,73.05
2023-02-17T10:07:47.212Z,73.13
2023-02-17T10:10:21.103Z,73.02
2023-02-17T10:12:52.105Z,72.95
2023-02-17T10:15:42.268Z,72.80
2023-02-17T10:18:26.783Z,72.68
2023-02-17T10:21:01.872Z,72.70
2023-02-17T10:23:30.588Z,72.62
2023-02-17T10:26:12.265Z,72.63
2023-02-17T10:28:51.078Z,72.45
2023-02-17T10:31:26.504Z,72.39
2023-02-17T10:34:04.130Z,72.23
2023-02-17T10:36:59.756Z,72.20
2023-02-17T10:39:49.861Z,72.18
2023-02-17T10:42:41.351Z,72.24
2023-02-17T10:45:33.573Z,71.84
2023-02-17T10:48:09.540Z,71.98
2023-02-17T10:50:41.301Z,72.01
2023-02-17T10:53:22.942Z,71.93
2023-02-17T10:55:51.141Z,71.79
2023-02-17T10:58:41.611Z,71.91
2023-02-17T11:01:10.200Z,71.81
2023-02-17T11:03:41.218Z,71.93
2023-02-17T11:06:19.382Z,71.66
2023-02-17T11:08:53.063Z,71.74
2023-02-17T11:11:30.616Z,71.60
2023-02-17T11:14:19.748Z,71.53
2023-02-17T11:16:54.770Z,71.73
2023-02-17T11:19:28.496Z,71.72
2023-02-17T11:21:58.809Z,71.65
2023-02-17T11:24:27.416Z,71.40
2023-02-17T11:27:00.064Z,71.43
2023-02-17T11:29:29.883Z,71.30
2023-02-17T11:31:59.403Z,71.19
2023-02-17T11:34:29.615Z,71.05
2023-02-17T11:37:00.327Z,70.94
2023-02-17T11:39:28.828Z,70.91
2023-02-17T11:41:57.840Z,70.92
2023-02-17T11:44:29.029Z,70.98
2023-02-17T11:47:04.563Z,71.05
2023-02-17T11:49:52.028Z,71.17
2023-02-17T11:52:42.059Z,71.18
2023-02-17T11:55:21.418Z,71.15
2023-02-17T11:58:12.204Z,71.04
2023-02-17T12:01:11.415Z,70.85
2023-02-17T12:03:43.273Z,70.81
2023-02-17T12:06:17.379Z,70.70
2023-02-17T12:08:52.582Z,70.66
2023-02-17T12:11:33.574Z,70.45
2023-02-17T12:14:39.545Z,70.44
2023-02-17T12:17:24.357Z,70.17
2023-02-17T12:20:14.874Z,70.14
2023-02-17T12:22:55.834Z,70.16
2023-02-17T12:25:38.380Z,70.06
2023-02-17T12:28:41.987Z,70.05
2023-02-17T12:31:35.956Z,70.02
2023-02-17T12:34:16.191Z,69.90
2023-02-17T12:36:44.378Z,70.13
2023-02-17T12:39:18.821Z,70.10
2023-02-17T12:41:51.359Z,70.12
2023-02-17T12:44:26.606Z,70.00
2023-02-17T12:46:57.720Z,70.23
2023-02-17T12:49:31.016Z,70.33
2023-02-17T12:52:11.271Z,70.18
2023-02-17T12:54:45.166Z,70.21
2023-02-17T12:57:48.904Z,70.46
2023-02-17T13:00:30.233Z,70.47
2023-02-17T13:02:59.616Z,70.42
2023-02-17T13:05:38.079Z,70.49
2023-02-17T13:08:11.705Z,70.40
2023-02-17T13:10:40.820Z,70.54
2023-02-17T13:13:17.161Z,70.47
2023-02-17T13:15:46.470Z,70.52
2023-02-17T13:18:36.404Z,70.71
2023-02-17T13:21:23.380Z,70.79
2023-02-17T13:24:36.745Z,70.92
2023-02-17T13:27:33.212Z,70.95
2023-02-17T13:30:17.493Z,71.11
2023-02-17T13:32:46.707Z,71.12
2023-02-17T13:35:25.077Z,71.22
2023-02-17T13:37:53.230Z,71.43
2023-02-17T13:40:22.611Z,71.31
2023-02-17T13:42:54.828Z,71.50
2023-02-17T13:45:26.513Z,71.58
2023-02-17T13:47:59.479Z,71.71
2023-02-17T13:50:32.198Z,71.77
2023-02-17T13:53:02.004Z,71.82
2023-02-17T13:55:32.394Z,71.81
2023-02-17T13:58:01.003Z,71.88
2023-02-17T14:00:34.331Z,72.15
2023-02-17T14:03:32.382Z,72.13
2023-02-17T14:06:01.249Z,72.28
2023-02-17T14:08:39.943Z,72.37
2023-02-17T14:11:09.360Z,72.37
2023-02-17T14:13:40.312Z,72.53
2023-02-17T14:16:35.367Z,72.62
2023-02-17T14:19:19.162Z,72.69
2023-02-17T14:21:56.496Z,72.69
2023-02-17T14:24:35.738Z,72.72
2023-02-17T14:27:08.872Z,72.80
2023-02-17T14:29:43.008Z,72.89
2023-02-17T14:32:32.994Z,72.82
2023-02-17T14:35:20.060Z,72.78
2023-02-17T14:37:48.939Z,72.92
2023-02-17T14:40:26.378Z,72.96
2023-02-17T14:42:55.417Z,73.15
2023-02-17T14:45:24.538Z,73.26
2023-02-17T14:47:53.474Z,73.37
2023-02-17T14:50:21.756Z,73.53
2023-02-17T14:52:50.024Z,73.67
2023-02-17T14:55:41.363Z,73.66
2023-02-17T14:58:20.754Z,73.85
2023-02-17T15:00:49.114Z,74.09
2023-02-17T15:03:21.009Z,74.16
2023-02-17T15:05:49.726Z,74.34
2023-02-17T15:08:21.519Z,74.44
2023-02-17T15:10:50.649Z,74.40
2023-02-17T15:13:21.062Z,74.48
2023-02-17T15:15:53.177Z,74.48
2023-02-17T15:18:23.190Z,74.74
2023-02-17T15:20:51.631Z,74.81
2023-02-17T15:23:22.288Z,74.95
2023-02-17T15:25:52.142Z,75.06
2023-02-17T15:28:21.576Z,75.12
2023-02-17T15:30:53.259Z,75.01
2023-02-17T15:33:23.250Z,75.18
2023-02-17T15:35:53.792Z,75.27
2023-02-17T15:38:22.538Z,75.59
2023-02-17T15:40:51.143Z,75.59
2023-02-17T15:43:21.380Z,75.85
2023-02-17T15:45:49.521Z,76.14
2023-02-17T15:48:24.308Z,76.24
2023-02-17T15:50:53.349Z,76.35
2023-02-17T15:53:22.088Z,76.58
2023-02-17T15:55:50.517Z,76.64
2023-02-17T15:58:20.366Z,76.83
2023-02-17T16:00:50.517Z,77.14
2023-02-17T16:03:19.075Z,77.29
2023-02-17T16:05:48.114Z,77.67
2023-02-17T16:08:16.329Z,77.93
2023-02-17T16:10:50.345Z,78.01
2023-02-17T16:13:26.477Z,78.27
2023-02-17T16:15:58.218Z,78.48
2023-02-17T16:18:26.545Z,78.66
2023-02-17T16:20:55.147Z,78.72
2023-02-17T16:23:23.292Z,79.06
2023-02-17T16:25:51.529Z,79.12
2023-02-17T16:28:21.067Z,79.44
2023-02-17T16:30:49.769Z,79.51
2023-02-17T16:33:18.220Z,79.67
2023-02-17T16:35:46.609Z,79.69
2023-02-17T16:38:23.196Z,80.03
2023-02-17T16:40:52.690Z,80.23
2023-02-17T16:43:26.993Z,80.21
2023-02-17T16:45:58.711Z,80.44
2023-02-17T16:48:29.146Z,80.56
2023-02-17T16:50:57.359Z,80.89
2023-02-17T16:53:25.788Z,80.95
2023-02-17T16:55:55.358Z,81.04
2023-02-17T16:58:24.889Z,81.27
2023-02-17T17:00:55.049Z,81.36
2023-02-17T17:03:23.421Z,81.57
2023-02-17T17:05:52.457Z,82.04
2023-02-17T17:08:22.165Z,82.15
2023-02-17T17:10:53.604Z,82.23
2023-02-17T17:13:23.615Z,82.38
2023-02-17T17:15:51.998Z,82.35
2023-02-17T17:18:21.269Z,82.65
2023-02-17T17:20:50.169Z,82.85
2023-02-17T17:23:20.258Z,82.90
2023-02-17T17:25:48.713Z,83.05
2023-02-17T17:28:19.231Z,83.21
2023-02-17T17:30:49.374Z,83.53
2023-02-17T17:33:17.737Z,83.59
2023-02-17T17:35:46.231Z,83.85
2023-02-17T17:38:15.702Z,83.82
2023-02-17T17:40:55.871Z,83.93
2023-02-17T17:43:24.919Z,84.02
2023-02-17T17:45:54.742Z,84.27
2023-02-17T17:48:23.013Z,84.21
2023-02-17T17:50:52.608Z,84.37
2023-02-17T17:53:22.600Z,84.46
2023-02-17T17:55:50.725Z,84.50
2023-02-17T17:58:21.376Z,84.71
2023-02-17T18:00:53.133Z,84.53
2023-02-17T18:03:23.134Z,84.75
2023-02-17T18:05:51.343Z,84.67
2023-02-17T18:08:20.248Z,84.74
2023-02-17T18:10:48.492Z,84.79
2023-02-17T18:13:22.589Z,84.80
2023-02-17T18:15:51.561Z,85.06
2023-02-17T18:18:20.287Z,84.92
2023-02-17T18:20:48.465Z,85.20
2023-02-17T18:23:17.618Z,85.15
2023-02-17T18:25:46.379Z,85.25
2023-02-17T18:28:14.699Z,85.15
2023-02-17T18:30:43.207Z,85.39
2023-02-17T18:33:14.647Z,85.34
2023-02-17T18:35:46.118Z,85.65
2023-02-17T18:38:14.967Z,85.44
2023-02-17T18:40:44.063Z,85.57
2023-02-17T18:43:12.262Z,85.66
2023-02-17T18:45:40.482Z,85.60
2023-02-17T18:48:09.471Z,85.54
2023-02-17T18:50:37.727Z,85.73
2023-02-17T18:53:06.347Z,85.78
2023-02-17T18:55:37.366Z,85.89
2023-02-17T18:58:05.621Z,85.88
2023-02-17T19:00:34.149Z,85.96
2023-02-17T19:03:06.101Z,85.82
2023-02-17T19:05:34.562Z,86.10
2023-02-17T19:08:10.254Z,86.36
2023-02-17T19:10:39.714Z,86.17
2023-02-17T19:13:07.924Z,86.49
2023-02-17T19:15:38.059Z,86.53
2023-02-17T19:18:06.314Z,86.68
2023-02-17T19:20:34.711Z,86.65
2023-02-17T19:23:03.074Z,86.59
2023-02-17T19:25:31.714Z,86.74
2023-02-17T19:28:00.591Z,86.72
2023-02-17T19:30:28.949Z,86.63
2023-02-17T19:32:58.018Z,86.80
2023-02-17T19:35:27.276Z,86.69
2023-02-17T19:37:56.110Z,86.64
2023-02-17T19:40:25.039Z,86.70
2023-02-17T19:42:55.510Z,86.63
2023-02-17T19:45:23.674Z,86.71
2023-02-17T19:47:51.888Z,86.60
2023-02-17T19:50:20.580Z,86.92
2023-02-17T19:52:49.067Z,86.87
2023-02-17T19:55:17.569Z,87.19
2023-02-17T19:57:45.834Z,86.96
2023-02-17T20:00:15.209Z,87.05
2023-02-17T20:02:43.613Z,87.06
2023-02-17T20:05:12.385Z,87.27
2023-02-17T20:07:40.964Z,87.29
2023-02-17T20:10:14.926Z,87.27
2023-02-17T20:12:44.547Z,87.40
2023-02-17T20:15:13.635Z,87.34
2023-02-17T20:17:44.649Z,87.58
2023-02-17T20:20:12.802Z,87.32
2023-02-17T20:22:40.940Z,87.53
2023-02-17T20:25:09.191Z,87.31
2023-02-17T20:27:37.870Z,87.46
2023-02-17T20:30:06.724Z,87.53
2023-02-17T20:32:37.187Z,87.58
2023-02-17T20:35:06.242Z,87.71
2023-02-17T20:37:34.792Z,87.57
2023-02-17T20:40:04.155Z,87.90
2023-02-17T20:42:33.184Z,87.96
2023-02-17T20:45:01.698Z,87.85
2023-02-17T20:47:30.316Z,87.79
2023-02-17T20:49:59.105Z,87.96
2023-02-17T20:52:27.888Z,88.09
2023-02-17T20:54:56.103Z,88.15
2023-02-17T20:57:26.143Z,88.32
2023-02-17T20:59:54.305Z,88.29
2023-02-17T21:02:26.477Z,88.55
2023-02-17T21:04:54.749Z,88.53
2023-02-17T21:07:23.473Z,88.64
2023-02-17T21:09:53.247Z,88.72
2023-02-17T21:12:21.513Z,88.67
2023-02-17T21:14:50.040Z,88.79
2023-02-17T21:17:21.454Z,88.65
2023-02-17T21:19:50.662Z,88.82
2023-02-17T21:22:21.980Z,88.83
2023-02-17T21:24:50.484Z,89.03
2023-02-17T21:27:19.409Z,89.20
2023-02-17T21:29:47.703Z,89.27
2023-02-17T21:32:16.031Z,88.86
2023-02-17T21:34:44.372Z,89.32
2023-02-17T21:37:12.824Z,89.46
2023-02-17T21:39:41.204Z,89.25
2023-02-17T21:42:09.578Z,89.47
2023-02-17T21:44:53.190Z,89.64
2023-02-17T21:47:21.812Z,89.76
2023-02-17T21:49:53.404Z,89.94
2023-02-17T21:52:22.074Z,90.03
2023-02-17T21:54:51.934Z,89.80
2023-02-17T21:57:20.144Z,90.16
2023-02-17T21:59:53.949Z,90.21
2023-02-17T22:02:23.369Z,90.31
2023-02-17T22:04:56.102Z,90.40
2023-02-17T22:07:25.208Z,90.51
2023-02-17T22:09:53.673Z,90.60
2023-02-17T22:12:22.048Z,90.64
2023-02-17T22:14:50.661Z,90.59
2023-02-17T22:17:20.960Z,90.74
2023-02-17T22:19:49.206Z,90.88
2023-02-17T22:22:17.358Z,90.83
2023-02-17T22:24:45.996Z,90.85
2023-02-17T22:27:14.291Z,91.07
2023-02-17T22:29:42.482Z,91.02
2023-02-17T22:32:10.623Z,91.14
2023-02-17T22:34:38.881Z,90.98
2023-02-17T22:37:08.128Z,91.05
2023-02-17T22:39:36.837Z,91.12
2023-02-17T22:42:06.921Z,91.29
2023-02-17T22:44:35.152Z,91.21
2023-02-17T22:47:03.851Z,91.38
2023-02-17T22:49:32.072Z,91.17
2023-02-17T22:52:00.398Z,91.23
2023-02-17T22:54:30.611Z,91.15
2023-02-17T22:56:58.936Z,91.23
2023-02-17T22:59:27.224Z,91.35
2023-02-17T23:02:00.085Z,91.36
2023-02-17T23:04:29.023Z,91.43
2023-02-17T23:06:59.270Z,91.33
2023-02-17T23:09:27.703Z,91.31
2023-02-17T23:11:58.419Z,91.40
2023-02-17T23:14:35.557Z,91.41
2023-02-17T23:17:06.576Z,91.44
2023-02-17T23:19:36.760Z,91.34
2023-02-17T23:22:07.451Z,91.44
2023-02-17T23:24:35.635Z,91.53
2023-02-17T23:27:04.207Z,91.62
2023-02-17T23:29:32.781Z,91.56
2023-02-17T23:32:01.528Z,91.53
2023-02-17T23:34:30.218Z,91.55
2023-02-17T23:36:59.135Z,91.72
2023-02-17T23:39:27.515Z,91.49
2023-02-17T23:41:56.516Z,91.65
2023-02-17T23:44:24.789Z,91.54
2023-02-17T23:46:52.910Z,91.46
2023-02-17T23:49:22.155Z,91.46
2023-02-17T23:51:50.391Z,91.53
2023-02-17T23:54:18.882Z,91.66
2023-02-17T23:56:47.054Z,91.79
2023-02-17T23:59:15.322Z,91.68
